createdAt,value
2018-04-11T00:00:57.771Z,5.78
2018-04-11T00:03:40.793Z,4.37
2018-04-11T00:06:28.307Z,4.80
2018-04-11T00:09:01.990Z,5.75
2018-04-11T00:11:52.813Z,6.13
2018-04-11T00:14:21.985Z,5.83
2018-04-11T00:16:50.993Z,8.20
2018-04-11T00:19:20.044Z,4.50
2018-04-11T00:21:48.992Z,9.27
2018-04-11T00:24:17.993Z,7.30
2018-04-11T00:26:47.776Z,5.87
2018-04-11T00:29:16.762Z,5.03
2018-04-11T00:31:45.752Z,3.80
2018-04-11T00:34:14.795Z,6.45
2018-04-11T00:36:44.854Z,8.15
2018-04-11T00:39:15.884Z,8.05
2018-04-11T00:41:46.379Z,4.62
2018-04-11T00:50:15.710Z,5.40
2018-04-11T00:56:04.461Z,5.87
2018-04-11T01:01:31.428Z,8.00
2018-04-11T01:04:22.802Z,8.63
2018-04-11T01:12:38.293Z,4.72
2018-04-11T01:15:42.201Z,8.27
2018-04-11T01:21:08.178Z,4.97
2018-04-11T01:23:54.122Z,6.57
2018-04-11T01:26:36.864Z,6.43
2018-04-11T01:31:56.268Z,4.72
2018-04-11T01:34:40.275Z,9.30
2018-04-11T01:42:20.049Z,6.07
2018-04-11T01:44:50.445Z,6.80
2018-04-11T01:47:19.446Z,8.57
2018-04-11T01:49:48.413Z,5.10
2018-04-11T01:52:17.481Z,5.43
2018-04-11T01:54:47.526Z,7.62
2018-04-11T01:57:16.498Z,5.45
2018-04-11T01:59:45.485Z,5.25
2018-04-11T02:02:14.593Z,8.57
2018-04-11T02:04:43.625Z,5.03
2018-04-11T02:07:12.688Z,8.50
2018-04-11T02:09:41.852Z,6.37
2018-04-11T02:12:13.847Z,7.40
2018-04-11T02:14:42.926Z,6.78
2018-04-11T02:17:11.964Z,7.60
2018-04-11T02:19:40.988Z,11.45
2018-04-11T02:22:15.783Z,6.70
2018-04-11T02:24:47.283Z,13.25
2018-04-11T02:27:19.567Z,7.32
2018-04-11T02:29:54.508Z,6.85
2018-04-11T02:32:27.287Z,7.72
2018-04-11T02:35:00.127Z,10.18
2018-04-11T02:37:32.125Z,6.90
2018-04-11T02:40:02.771Z,10.65
2018-04-11T02:42:40.256Z,9.02
2018-04-11T02:45:11.735Z,7.72
2018-04-11T02:47:43.248Z,10.18
2018-04-11T02:50:15.595Z,9.75
2018-04-11T02:52:47.182Z,8.45
2018-04-11T02:55:19.241Z,7.32
2018-04-11T02:57:51.616Z,11.00
2018-04-11T03:00:21.723Z,12.25
2018-04-11T03:02:51.489Z,10.55
2018-04-11T03:05:20.467Z,8.77
2018-04-11T03:07:52.160Z,9.02
2018-04-11T03:10:21.152Z,10.63
2018-04-11T03:12:50.150Z,18.23
2018-04-11T03:15:19.897Z,11.27
2018-04-11T03:17:49.184Z,13.25
2018-04-11T03:20:18.991Z,11.50
2018-04-11T03:22:47.995Z,14.70
2018-04-11T03:25:16.964Z,12.52
2018-04-11T03:27:45.958Z,14.27
2018-04-11T03:30:15.718Z,14.85
2018-04-11T03:32:44.709Z,18.70
2018-04-11T03:35:13.718Z,12.75
2018-04-11T03:37:42.758Z,15.30
2018-04-11T03:40:12.542Z,14.50
2018-04-11T03:42:41.934Z,16.27
2018-04-11T03:45:11.222Z,13.48
2018-04-11T03:47:40.408Z,17.60
2018-04-11T03:50:09.547Z,25.37
2018-04-11T03:52:40.866Z,19.73
2018-04-11T03:55:09.911Z,22.25
2018-04-11T03:57:40.930Z,20.40
2018-04-11T04:00:10.547Z,24.58
2018-04-11T04:03:59.673Z,30.00
2018-04-11T04:06:28.922Z,24.15
2018-04-11T04:09:04.498Z,23.73
2018-04-11T04:11:40.978Z,24.60
2018-04-11T04:16:29.673Z,27.17
2018-04-11T04:20:15.583Z,23.45
2018-04-11T04:22:44.637Z,23.38
2018-04-11T04:25:14.297Z,27.10
2018-04-11T04:27:43.342Z,26.42
2018-04-11T04:30:30.675Z,27.85
2018-04-11T04:33:12.577Z,28.38
2018-04-11T04:35:52.938Z,28.90
2018-04-11T04:38:38.905Z,29.23
2018-04-11T04:41:20.464Z,30.08
2018-04-11T04:44:00.807Z,27.80
2018-04-11T04:46:33.308Z,30.00
2018-04-11T04:49:14.899Z,28.87
2018-04-11T04:54:38.799Z,25.60
2018-04-11T04:57:42.144Z,27.33
2018-04-11T05:00:23.789Z,27.83
2018-04-11T05:03:02.622Z,27.20
2018-04-11T05:05:45.512Z,31.10
2018-04-11T05:08:26.784Z,33.33
2018-04-11T05:11:05.013Z,31.92
2018-04-11T05:13:48.251Z,27.92
2018-04-11T05:16:48.439Z,32.05
2018-04-11T06:07:04.473Z,21.48
2018-04-11T06:09:35.046Z,23.70
2018-04-11T06:12:09.184Z,21.70
2018-04-11T06:14:38.280Z,22.20
2018-04-11T06:17:08.549Z,20.67
2018-04-11T06:19:38.568Z,24.33
2018-04-11T06:22:07.707Z,26.33
2018-04-11T06:24:46.042Z,24.55
2018-04-11T06:27:15.955Z,21.00
2018-04-11T06:29:45.273Z,17.35
2018-04-11T06:32:14.354Z,18.60
2018-04-11T06:34:43.598Z,19.70
2018-04-11T06:37:12.756Z,19.52
2018-04-11T06:39:41.930Z,21.37
2018-04-11T06:42:11.116Z,17.75
2018-04-11T06:44:40.272Z,18.85
2018-04-11T06:47:10.021Z,21.62
2018-04-11T06:49:39.274Z,20.23
2018-04-11T06:52:10.388Z,16.12
2018-04-11T06:55:10.463Z,19.45
2018-04-11T06:57:39.702Z,16.83
2018-04-11T07:00:09.726Z,15.90
2018-04-11T07:02:41.586Z,14.93
2018-04-11T07:05:11.353Z,19.45
2018-04-11T07:07:40.720Z,15.15
2018-04-11T07:10:10.752Z,17.20
2018-04-11T07:12:39.917Z,15.85
2018-04-11T07:15:09.105Z,14.82
2018-04-11T07:17:38.241Z,15.50
2018-04-11T07:20:07.515Z,14.70
2018-04-11T07:22:44.823Z,15.95
2018-04-11T07:25:18.934Z,16.12
2018-04-11T07:27:49.333Z,15.27
2018-04-11T07:30:19.390Z,18.42
2018-04-11T07:32:48.764Z,16.35
2018-04-11T07:35:17.873Z,13.93
2018-04-11T07:37:47.846Z,15.15
2018-04-11T07:40:17.244Z,15.40
2018-04-11T07:42:48.032Z,15.18
2018-04-11T07:45:18.151Z,14.02
2018-04-11T07:47:47.385Z,16.50
2018-04-11T07:50:16.826Z,14.87
2018-04-11T07:52:46.127Z,16.20
2018-04-11T07:55:15.445Z,18.27
2018-04-11T07:57:44.664Z,13.73
2018-04-11T08:00:14.643Z,13.85
2018-04-11T08:02:44.266Z,16.05
2018-04-11T08:05:14.373Z,15.38
2018-04-11T08:07:44.382Z,14.27
2018-04-11T08:10:14.506Z,15.32
2018-04-11T08:12:43.809Z,13.35
2018-04-11T08:15:13.221Z,15.25
2018-04-11T08:17:43.616Z,15.50
2018-04-11T08:20:13.310Z,17.58
2018-04-11T08:22:44.166Z,15.98
2018-04-11T08:25:13.577Z,14.60
2018-04-11T08:27:43.433Z,18.40
2018-04-11T08:30:13.278Z,15.48
2018-04-11T08:32:42.536Z,15.70
2018-04-11T08:35:11.817Z,15.70
2018-04-11T08:37:40.994Z,16.98
2018-04-11T08:40:11.048Z,16.02
2018-04-11T08:42:41.442Z,16.45
2018-04-11T08:45:13.928Z,18.07
2018-04-11T08:47:43.317Z,15.73
2018-04-11T08:50:13.541Z,14.70
2018-04-11T08:52:43.433Z,14.50
2018-04-11T08:55:12.542Z,14.82
2018-04-11T08:57:45.340Z,13.45
2018-04-11T09:00:14.654Z,13.75
2018-04-11T09:02:46.404Z,14.40
2018-04-11T09:05:16.516Z,13.50
2018-04-11T09:07:47.526Z,14.67
2018-04-11T09:10:19.472Z,14.00
2018-04-11T09:12:49.943Z,14.57
2018-04-11T09:15:19.834Z,13.85
2018-04-11T09:17:49.371Z,14.25
2018-04-11T09:20:23.097Z,13.98
2018-04-11T09:22:55.879Z,12.55
2018-04-11T09:25:25.157Z,12.40
2018-04-11T09:27:55.283Z,12.27
2018-04-11T09:30:24.415Z,12.27
2018-04-11T09:33:00.230Z,12.80
2018-04-11T09:35:30.147Z,13.95
2018-04-11T09:38:01.418Z,15.38
2018-04-11T09:40:30.625Z,13.83
2018-04-11T09:43:06.920Z,13.55
2018-04-11T09:45:36.761Z,12.57
2018-04-11T09:48:07.206Z,12.83
2018-04-11T09:50:36.795Z,11.77
2018-04-11T09:53:06.941Z,15.70
2018-04-11T09:55:36.364Z,14.30
2018-04-11T09:58:05.875Z,14.73
2018-04-11T10:00:35.948Z,13.93
2018-04-11T10:03:06.318Z,14.05
2018-04-11T10:05:36.457Z,13.63
2018-04-11T10:08:06.092Z,14.97
2018-04-11T10:10:35.289Z,14.52
2018-04-11T10:13:05.333Z,13.93
2018-04-11T10:15:34.645Z,13.18
2018-04-11T10:18:04.032Z,16.77
2018-04-11T10:20:33.335Z,14.37
2018-04-11T10:23:02.683Z,13.40
2018-04-11T10:25:31.817Z,14.48
2018-04-11T10:28:01.923Z,14.18
2018-04-11T10:30:31.266Z,13.75
2018-04-11T10:33:00.625Z,16.90
2018-04-11T10:35:30.999Z,19.20
2018-04-11T10:38:00.425Z,16.00
2018-04-11T10:40:33.445Z,15.75
2018-04-11T10:43:02.587Z,16.92
2018-04-11T10:45:32.938Z,17.37
2018-04-11T10:48:02.104Z,17.33
2018-04-11T10:50:32.047Z,17.85
2018-04-11T10:53:02.498Z,19.02
2018-04-11T10:55:31.840Z,18.73
2018-04-11T10:58:04.527Z,20.48
2018-04-11T11:00:34.011Z,21.00
2018-04-11T11:03:03.554Z,21.45
2018-04-11T11:05:32.941Z,19.02
2018-04-11T11:08:02.974Z,19.23
2018-04-11T11:10:32.486Z,19.95
2018-04-11T11:13:07.203Z,18.17
2018-04-11T11:15:47.912Z,20.67
2018-04-11T11:18:18.504Z,20.58
2018-04-11T11:21:02.912Z,21.80
2018-04-11T11:23:32.341Z,22.42
2018-04-11T11:26:02.948Z,23.92
2018-04-11T11:28:33.485Z,23.90
2018-04-11T11:31:05.053Z,24.42
2018-04-11T11:33:34.319Z,25.48
2018-04-11T11:36:03.765Z,24.55
2018-04-11T11:38:33.117Z,25.15
2018-04-11T11:41:02.305Z,24.15
2018-04-11T11:43:32.292Z,23.50
2018-04-11T11:46:01.543Z,27.33
2018-04-11T11:48:31.750Z,26.37
2018-04-11T11:51:01.742Z,25.60
2018-04-11T11:53:30.900Z,24.35
2018-04-11T11:56:00.031Z,25.75
2018-04-11T11:58:30.201Z,24.12
2018-04-11T12:00:59.426Z,26.23
2018-04-11T12:03:28.855Z,24.65
2018-04-11T12:05:58.000Z,23.45
2018-04-11T12:08:27.276Z,28.23
2018-04-11T12:10:57.013Z,22.17
2018-04-11T12:13:26.270Z,21.35
2018-04-11T12:15:55.547Z,21.60
2018-04-11T12:18:24.814Z,22.05
2018-04-11T12:20:58.412Z,22.17
2018-04-11T12:23:27.572Z,21.17
2018-04-11T12:25:56.826Z,21.62
2018-04-11T12:28:26.347Z,21.37
2018-04-11T12:30:56.360Z,21.35
2018-04-11T12:33:26.262Z,22.10
2018-04-11T12:35:56.154Z,22.67
2018-04-11T12:38:25.576Z,21.70
2018-04-11T12:40:57.104Z,20.75
2018-04-11T12:43:27.299Z,19.27
2018-04-11T12:45:56.561Z,21.03
2018-04-11T12:48:26.146Z,20.37
2018-04-11T12:50:55.364Z,19.87
2018-04-11T12:53:24.621Z,19.23
2018-04-11T12:55:55.734Z,20.25
2018-04-11T12:58:25.299Z,20.27
2018-04-11T13:00:55.154Z,19.27
2018-04-11T13:03:24.293Z,19.50
2018-04-11T13:05:53.589Z,18.50
2018-04-11T13:08:23.610Z,18.55
2018-04-11T13:10:53.319Z,16.83
2018-04-11T13:13:25.543Z,16.00
2018-04-11T13:15:54.779Z,18.33
2018-04-11T13:18:29.051Z,17.73
2018-04-11T13:20:58.333Z,17.50
2018-04-11T13:23:28.319Z,16.13
2018-04-11T13:25:58.593Z,21.23
2018-04-11T13:28:32.262Z,17.20
2018-04-11T13:31:02.518Z,18.73
2018-04-11T13:33:32.547Z,16.43
2018-04-11T13:36:02.706Z,14.73
2018-04-11T13:38:32.000Z,16.83
2018-04-11T13:41:01.479Z,16.77
2018-04-11T13:43:30.687Z,16.07
2018-04-11T13:46:01.722Z,16.30
2018-04-11T13:48:30.846Z,17.00
2018-04-11T13:51:00.116Z,16.12
2018-04-11T13:53:29.307Z,14.73
2018-04-11T13:55:59.360Z,14.90
2018-04-11T13:58:31.413Z,14.43
2018-04-11T14:01:02.621Z,14.07
2018-04-11T14:03:31.865Z,16.10
2018-04-11T14:06:01.883Z,15.50
2018-04-11T14:08:32.051Z,14.20
2018-04-11T14:11:03.986Z,17.30
2018-04-11T14:13:35.154Z,15.20
2018-04-11T14:16:04.533Z,13.25
2018-04-11T14:18:34.627Z,13.93
2018-04-11T14:21:04.627Z,13.23
2018-04-11T14:23:33.832Z,14.00
2018-04-11T14:26:04.167Z,14.87
2018-04-11T14:28:33.441Z,14.60
2018-04-11T14:31:04.451Z,14.53
2018-04-11T14:33:37.436Z,13.45
2018-04-11T14:36:06.870Z,14.07
2018-04-11T14:38:36.438Z,14.75
2018-04-11T14:41:05.781Z,14.00
2018-04-11T14:43:35.343Z,14.43
2018-04-11T14:46:10.862Z,14.07
2018-04-11T14:48:40.163Z,12.83
2018-04-11T14:51:10.064Z,13.20
2018-04-11T14:53:39.973Z,12.30
2018-04-11T14:56:10.106Z,12.90
2018-04-11T14:58:40.009Z,11.43
2018-04-11T15:01:11.374Z,13.33
2018-04-11T15:03:40.605Z,10.80
2018-04-11T15:06:09.999Z,11.43
2018-04-11T15:08:40.052Z,11.15
2018-04-11T15:11:09.322Z,12.13
2018-04-11T15:13:39.903Z,11.97
2018-04-11T15:16:11.675Z,13.27
2018-04-11T15:18:40.892Z,15.63
2018-04-11T15:22:30.182Z,15.67
2018-04-11T15:25:03.084Z,15.93
2018-04-11T15:27:33.664Z,13.68
2018-04-11T15:30:08.293Z,14.38
2018-04-11T15:32:38.129Z,12.30
2018-04-11T15:35:07.566Z,13.32
2018-04-11T15:37:37.101Z,14.00
2018-04-11T15:40:06.484Z,15.55
2018-04-11T15:42:35.801Z,15.82
2018-04-11T15:45:10.133Z,17.40
2018-04-11T15:47:39.358Z,18.40
2018-04-11T15:50:08.668Z,17.98
2018-04-11T15:52:38.083Z,17.62
2018-04-11T15:55:07.353Z,15.02
2018-04-11T15:57:36.867Z,16.25
2018-04-11T16:00:06.923Z,18.27
2018-04-11T16:02:36.294Z,16.20
2018-04-11T16:05:06.336Z,16.17
2018-04-11T16:07:35.486Z,17.98
2018-04-11T16:10:05.684Z,18.52
2018-04-11T16:12:39.975Z,17.95
2018-04-11T16:15:09.416Z,18.30
2018-04-11T16:17:42.145Z,20.10
2018-04-11T16:20:12.499Z,18.87
2018-04-11T16:22:42.737Z,22.40
2018-04-11T16:25:12.942Z,24.25
2018-04-11T16:27:43.308Z,23.83
2018-04-11T16:30:22.733Z,27.70
2018-04-11T16:32:52.877Z,21.85
2018-04-11T16:35:28.718Z,22.33
2018-04-11T16:37:57.961Z,22.20
2018-04-11T16:40:27.261Z,23.48
2018-04-11T16:42:56.553Z,22.40
2018-04-11T16:45:25.744Z,23.38
2018-04-11T16:47:54.943Z,23.70
2018-04-11T16:50:24.133Z,22.98
2018-04-11T16:52:53.274Z,23.02
2018-04-11T16:55:23.337Z,22.50
2018-04-11T16:57:53.311Z,22.58
2018-04-11T17:00:23.196Z,26.62
2018-04-11T17:02:53.996Z,23.60
2018-04-11T17:05:23.140Z,25.27
2018-04-11T17:07:52.268Z,22.55
2018-04-11T17:10:21.440Z,23.80
2018-04-11T17:12:50.838Z,23.30
2018-04-11T17:15:20.900Z,23.57
2018-04-11T17:17:51.127Z,24.00
2018-04-11T17:20:25.407Z,23.33
2018-04-11T17:25:12.433Z,23.30
2018-04-11T17:27:52.606Z,22.87
2018-04-11T17:31:29.458Z,27.37
2018-04-11T17:33:58.898Z,31.58
2018-04-11T17:36:29.183Z,32.05
2018-04-11T17:38:58.315Z,30.47
2018-04-11T17:41:30.490Z,31.60
2018-04-11T17:44:19.753Z,32.10
2018-04-11T17:47:08.421Z,31.20
2018-04-11T17:49:43.094Z,33.40
2018-04-11T17:52:44.770Z,36.17
2018-04-11T17:55:14.065Z,36.50
2018-04-11T17:57:44.104Z,38.37
2018-04-11T18:00:14.939Z,40.55
2018-04-11T18:02:54.014Z,37.05
2018-04-11T18:05:23.076Z,39.88
2018-04-11T18:07:52.209Z,43.00
2018-04-11T18:10:23.383Z,44.13
2018-04-11T18:12:52.698Z,48.55
2018-04-11T18:15:23.865Z,49.13
2018-04-11T18:17:53.061Z,47.60
2018-04-11T18:20:22.882Z,46.72
2018-04-11T18:22:52.005Z,50.38
2018-04-11T18:25:21.070Z,49.63
2018-04-11T18:27:50.217Z,52.28
2018-04-11T18:30:22.685Z,50.30
2018-04-11T18:32:52.972Z,51.95
2018-04-11T18:35:22.183Z,58.85
2018-04-11T18:37:57.408Z,57.80
2018-04-11T18:40:27.151Z,62.13
2018-04-11T18:43:01.893Z,62.65
2018-04-11T18:45:31.738Z,62.67
2018-04-11T18:48:03.770Z,74.07
2018-04-11T18:50:32.965Z,63.42
2018-04-11T18:53:02.081Z,70.75
2018-04-11T18:55:31.575Z,71.50
2018-04-11T18:58:00.810Z,72.18
2018-04-11T19:00:30.828Z,78.62
2018-04-11T19:03:00.355Z,80.75
2018-04-11T19:05:29.449Z,74.30
2018-04-11T19:07:58.618Z,78.47
2018-04-11T19:10:27.789Z,80.97
2018-04-11T19:12:56.876Z,74.90
2018-04-11T19:15:26.252Z,75.75
2018-04-11T19:17:55.511Z,82.07
2018-04-11T19:20:24.744Z,72.60
2018-04-11T19:22:53.787Z,76.15
2018-04-11T19:25:23.629Z,79.80
2018-04-11T19:27:53.460Z,82.60
2018-04-11T19:30:23.376Z,82.20
2018-04-11T19:32:52.428Z,78.25
2018-04-11T19:35:25.171Z,71.22
2018-04-11T19:38:11.570Z,78.78
2018-04-11T19:40:41.879Z,81.07
2018-04-11T19:43:11.034Z,77.97
2018-04-11T19:45:41.420Z,73.57
2018-04-11T19:48:10.917Z,72.32
2018-04-11T19:50:40.623Z,78.72
2018-04-11T19:53:10.904Z,70.70
2018-04-11T19:55:40.847Z,70.85
2018-04-11T19:58:10.008Z,67.47
2018-04-11T20:00:40.073Z,65.53
2018-04-11T20:03:10.029Z,66.25
2018-04-11T20:05:39.951Z,67.18
2018-04-11T20:08:09.907Z,63.28
2018-04-11T20:10:38.987Z,60.08
2018-04-11T20:13:08.112Z,53.60
2018-04-11T20:15:38.282Z,58.15
2018-04-11T20:18:07.616Z,58.42
2018-04-11T20:20:37.636Z,61.35
2018-04-11T20:23:10.366Z,64.20
2018-04-11T20:25:39.604Z,63.45
2018-04-11T20:28:11.960Z,62.70
2018-04-11T20:30:41.163Z,58.38
2018-04-11T20:33:10.261Z,60.47
2018-04-11T20:35:42.879Z,62.92
2018-04-11T20:38:12.089Z,64.07
2018-04-11T20:40:41.173Z,55.78
2018-04-11T20:43:10.430Z,56.22
2018-04-11T20:45:39.548Z,60.20
2018-04-11T20:48:08.780Z,61.10
2018-04-11T20:50:37.797Z,66.03
2018-04-11T20:53:12.675Z,69.57
2018-04-11T21:01:15.704Z,72.60
2018-04-11T21:03:56.885Z,69.68
2018-04-11T21:09:15.785Z,69.30
2018-04-11T21:11:44.893Z,61.05
2018-04-11T21:14:14.285Z,62.97
